Time;durP1;ratioP1;P1;durP2;ratioP2;P2;SDS_P1;SDS_P2;PMS_P1;PMS_P2;Temp;Humidity;BMP_temperature;BMP_pressure;BME280_temperature;BME280_humidity;BME280_pressure;Samples;Min_cycle;Max_cycle;Signal;HPM_P1;HPM_P2
2022/06/12 00:00:11;;;;;;;7.72;5.78;;;20.80;99.90;;;;;;5050287;28;20205;-76
2022/06/12 00:02:38;;;;;;;9.23;6.13;;;20.80;99.90;;;;;;5049231;28;20221;-76
2022/06/12 00:05:04;;;;;;;10.73;5.53;;;20.70;99.90;;;;;;5050394;28;20218;-76
2022/06/12 00:07:30;;;;;;;7.07;5.82;;;20.70;99.90;;;;;;5048904;28;20176;-75
2022/06/12 00:09:55;;;;;;;7.50;5.90;;;20.60;99.90;;;;;;5050801;28;20176;-76
2022/06/12 00:12:22;;;;;;;7.78;6.20;;;20.60;99.90;;;;;;5050152;28;20277;-75
2022/06/12 00:14:48;;;;;;;8.88;5.80;;;20.60;99.90;;;;;;5051138;28;20657;-76
2022/06/12 00:17:13;;;;;;;7.43;5.95;;;20.60;99.90;;;;;;5049020;28;20223;-76
2022/06/12 00:19:40;;;;;;;7.18;5.90;;;20.60;99.90;;;;;;5040721;28;20542;-76
2022/06/12 00:22:06;;;;;;;9.18;5.75;;;20.60;99.90;;;;;;5052305;28;20203;-77
2022/06/12 00:24:33;;;;;;;7.72;5.85;;;20.60;99.90;;;;;;5053059;28;20200;-77
2022/06/12 00:26:59;;;;;;;7.70;5.38;;;20.50;99.90;;;;;;5054240;28;20699;-76
2022/06/12 00:29:32;;;;;;;7.78;6.38;;;20.50;99.90;;;;;;5052395;28;20219;-77
2022/06/12 00:32:12;;;;;;;6.88;6.20;;;20.40;99.90;;;;;;5053022;28;20702;-76
2022/06/12 00:34:50;;;;;;;7.57;6.10;;;20.40;99.90;;;;;;5053043;28;20186;-76
2022/06/12 00:37:18;;;;;;;12.70;6.38;;;20.40;99.90;;;;;;5053183;28;20199;-77
2022/06/12 00:39:46;;;;;;;9.65;6.28;;;20.50;99.90;;;;;;5052458;28;20199;-77
2022/06/12 00:42:23;;;;;;;10.93;6.57;;;20.40;99.90;;;;;;5052736;28;20688;-77
2022/06/12 00:44:50;;;;;;;11.65;6.55;;;20.40;99.90;;;;;;5037163;28;20204;-77
2022/06/12 00:47:16;;;;;;;10.45;6.45;;;20.40;99.90;;;;;;5054004;28;20267;-76
2022/06/12 00:49:48;;;;;;;7.97;5.80;;;20.30;99.90;;;;;;5046289;28;20253;-77
2022/06/12 00:52:29;;;;;;;8.20;6.50;;;20.30;99.90;;;;;;5052768;28;20169;-77
2022/06/12 00:55:00;;;;;;;7.95;5.55;;;20.20;99.90;;;;;;5039056;28;20681;-76
2022/06/12 00:57:26;;;;;;;7.65;6.28;;;20.40;99.90;;;;;;5052360;28;20232;-77
2022/06/12 00:59:56;;;;;;;9.88;6.55;;;20.40;99.90;;;;;;5052322;28;20210;-77
2022/06/12 01:02:26;;;;;;;7.65;6.40;;;20.30;99.90;;;;;;5052253;28;20302;-75
2022/06/12 01:07:40;;;;;;;9.52;6.05;;;20.10;99.90;;;;;;5053654;28;20186;-76
2022/06/12 01:10:08;;;;;;;7.18;6.13;;;20.10;99.90;;;;;;5052811;28;20176;-77
2022/06/12 01:12:38;;;;;;;13.57;6.88;;;20.00;99.90;;;;;;5052007;28;20218;-76
2022/06/12 01:15:14;;;;;;;10.60;5.88;;;20.00;99.90;;;;;;5053297;28;20205;-76
2022/06/12 01:17:40;;;;;;;8.63;6.53;;;20.00;99.90;;;;;;5051894;28;20207;-77
2022/06/12 01:20:11;;;;;;;7.70;6.32;;;20.00;99.90;;;;;;5046571;28;20558;-77
2022/06/12 01:23:11;;;;;;;8.00;5.63;;;20.00;99.90;;;;;;5051720;28;20207;-76
2022/06/12 01:25:48;;;;;;;10.02;7.28;;;20.00;99.90;;;;;;5053091;28;20652;-76
2022/06/12 01:28:36;;;;;;;9.27;7.05;;;20.00;99.90;;;;;;5053447;28;20183;-77
2022/06/12 01:31:18;;;;;;;8.35;6.38;;;20.00;99.90;;;;;;5033419;28;20573;-76
2022/06/12 01:33:54;;;;;;;10.25;6.57;;;19.90;99.90;;;;;;5050202;28;20231;-76
2022/06/12 01:36:43;;;;;;;9.50;7.05;;;19.90;99.90;;;;;;5051942;28;20207;-76
2022/06/12 01:39:23;;;;;;;8.00;6.57;;;19.90;99.90;;;;;;5041439;28;20239;-76
2022/06/12 01:42:00;;;;;;;8.05;6.30;;;19.90;99.90;;;;;;5051531;28;20215;-77
2022/06/12 01:44:59;;;;;;;12.95;6.72;;;19.80;99.90;;;;;;5051472;28;20227;-76
2022/06/12 01:47:43;;;;;;;8.50;6.68;;;19.70;99.90;;;;;;5052740;28;20303;-76
2022/06/12 01:50:39;;;;;;;10.00;6.10;;;19.80;99.90;;;;;;5043633;28;20208;-76
2022/06/12 01:53:17;;;;;;;11.00;6.35;;;19.80;99.90;;;;;;5052915;28;20291;-76
2022/06/12 01:55:48;;;;;;;7.78;6.97;;;19.70;99.90;;;;;;5051077;28;20187;-76
2022/06/12 01:58:37;;;;;;;8.35;6.72;;;19.70;99.90;;;;;;5051525;28;20176;-75
2022/06/12 02:01:14;;;;;;;9.48;6.93;;;19.70;99.90;;;;;;5039643;28;20313;-75
2022/06/12 02:03:44;;;;;;;7.22;6.53;;;19.70;99.90;;;;;;5051043;28;20203;-75
2022/06/12 02:06:26;;;;;;;10.95;6.82;;;19.60;99.90;;;;;;5052531;28;20214;-76
2022/06/12 02:09:19;;;;;;;11.77;7.38;;;19.60;99.90;;;;;;5037496;28;20211;-77
2022/06/12 02:14:43;;;;;;;9.32;7.35;;;19.60;99.90;;;;;;5052472;28;20253;-75
2022/06/12 02:17:16;;;;;;;9.43;7.18;;;19.60;99.90;;;;;;5052371;28;20210;-76
2022/06/12 02:19:43;;;;;;;10.80;7.38;;;19.60;99.90;;;;;;5042857;28;20612;-76
2022/06/12 02:22:18;;;;;;;11.50;7.45;;;19.60;99.90;;;;;;5051474;28;20204;-76
2022/06/12 02:24:51;;;;;;;8.30;7.18;;;19.70;99.90;;;;;;5050814;28;20222;-76
2022/06/12 02:27:43;;;;;;;7.85;6.80;;;19.60;99.90;;;;;;5052073;28;20549;-76
2022/06/12 02:30:15;;;;;;;7.70;6.72;;;19.50;99.90;;;;;;5039192;28;20200;-76
2022/06/12 02:33:06;;;;;;;10.07;7.18;;;19.60;99.90;;;;;;5052143;28;20265;-76
2022/06/12 02:35:40;;;;;;;9.77;7.60;;;19.60;99.90;;;;;;5050437;28;20212;-75
2022/06/12 02:38:19;;;;;;;9.10;6.68;;;19.50;99.90;;;;;;5052052;28;20257;-75
2022/06/12 02:40:51;;;;;;;8.77;7.22;;;19.60;99.90;;;;;;5050313;28;20219;-76
2022/06/12 02:43:21;;;;;;;10.07;7.55;;;19.50;99.90;;;;;;5052370;28;20649;-77
2022/06/12 02:45:55;;;;;;;10.75;7.35;;;19.60;99.90;;;;;;5050201;28;20280;-76
2022/06/12 02:48:21;;;;;;;11.95;7.20;;;19.60;99.90;;;;;;5050077;28;20203;-74
2022/06/12 02:51:01;;;;;;;7.85;6.50;;;19.60;99.90;;;;;;5044377;28;20560;-78
2022/06/12 02:53:59;;;;;;;8.68;6.88;;;19.70;99.90;;;;;;5049968;28;20257;-77
2022/06/12 02:56:47;;;;;;;10.38;6.80;;;19.60;99.90;;;;;;5044532;28;20215;-77
2022/06/12 02:59:40;;;;;;;8.93;6.85;;;19.70;99.90;;;;;;5043119;28;20203;-76
2022/06/12 03:02:13;;;;;;;6.97;6.28;;;19.80;99.90;;;;;;5013397;28;20240;-77
2022/06/12 03:04:47;;;;;;;9.18;6.47;;;19.80;99.90;;;;;;5030705;28;20655;-77
2022/06/12 03:07:13;;;;;;;8.90;6.85;;;19.80;99.90;;;;;;5030527;28;20188;-76
2022/06/12 03:09:39;;;;;;;8.55;6.55;;;19.70;99.90;;;;;;5031109;28;20204;-77
2022/06/12 03:12:06;;;;;;;8.82;6.55;;;19.70;99.90;;;;;;5031597;28;20228;-77
2022/06/12 03:14:31;;;;;;;8.70;6.97;;;19.70;99.90;;;;;;5031621;28;20249;-75
2022/06/12 03:16:57;;;;;;;8.10;6.93;;;19.70;99.90;;;;;;5031569;28;20236;-76
2022/06/12 03:19:31;;;;;;;9.90;6.85;;;19.60;99.90;;;;;;5031307;28;20176;-76
2022/06/12 03:22:21;;;;;;;10.05;7.05;;;19.60;99.90;;;;;;5030176;28;20224;-76
2022/06/12 03:25:05;;;;;;;7.05;6.47;;;19.50;99.90;;;;;;5010253;28;20213;-76
2022/06/12 03:27:46;;;;;;;12.27;7.07;;;19.50;99.90;;;;;;5027952;28;20568;-76
2022/06/12 03:30:21;;;;;;;8.40;6.90;;;19.50;99.90;;;;;;5031853;28;20286;-75
2022/06/12 03:33:02;;;;;;;7.53;6.70;;;19.50;99.90;;;;;;5028706;28;20199;-76
2022/06/12 03:35:39;;;;;;;7.88;7.13;;;19.50;99.90;;;;;;5032143;28;20227;-76
2022/06/12 03:38:28;;;;;;;8.60;7.70;;;19.60;99.90;;;;;;5030809;28;20273;-75
2022/06/12 03:41:18;;;;;;;9.07;6.88;;;19.60;99.90;;;;;;5025197;28;20299;-77
2022/06/12 03:43:53;;;;;;;7.72;6.82;;;19.60;99.90;;;;;;5033276;28;20200;-76
2022/06/12 03:46:47;;;;;;;7.07;6.38;;;19.70;99.90;;;;;;5033130;28;20256;-76
2022/06/12 03:49:25;;;;;;;8.00;6.95;;;19.60;99.90;;;;;;5027427;28;20717;-76
2022/06/12 03:52:13;;;;;;;8.27;7.10;;;19.70;99.90;;;;;;5025044;28;20219;-76
2022/06/12 03:55:04;;;;;;;8.60;6.72;;;19.70;99.90;;;;;;5032200;28;20196;-76
2022/06/12 03:57:50;;;;;;;11.07;7.38;;;19.80;99.90;;;;;;5030500;28;20196;-76
2022/06/12 04:00:41;;;;;;;8.38;6.82;;;19.90;99.90;;;;;;5030844;28;20227;-75
2022/06/12 04:03:14;;;;;;;13.40;6.57;;;20.00;99.90;;;;;;5030826;28;20211;-76
2022/06/12 04:05:47;;;;;;;7.38;6.22;;;20.00;99.90;;;;;;5031735;28;20231;-76
2022/06/12 04:08:21;;;;;;;11.90;7.22;;;20.10;99.90;;;;;;5031300;28;20211;-75
2022/06/12 04:10:48;;;;;;;9.43;6.00;;;19.90;99.90;;;;;;5028868;28;20267;-75
2022/06/12 04:13:16;;;;;;;6.78;6.15;;;19.90;99.90;;;;;;5036623;28;20176;-75
2022/06/12 04:15:54;;;;;;;7.75;6.25;;;20.10;99.90;;;;;;5038104;28;20235;-76
2022/06/12 04:18:20;;;;;;;9.02;6.38;;;20.30;99.90;;;;;;5040117;28;20208;-76
2022/06/12 04:21:20;;;;;;;9.20;6.93;;;20.50;99.90;;;;;;5026305;28;20583;-76
2022/06/12 04:24:13;;;;;;;7.75;6.85;;;20.80;99.90;;;;;;5013064;28;20250;-77
2022/06/12 04:26:41;;;;;;;8.27;6.30;;;23.00;99.90;;;;;;5033374;28;20224;-76
2022/06/12 04:29:12;;;;;;;8.43;6.40;;;23.20;99.90;;;;;;5031708;28;20254;-76
2022/06/12 04:31:41;;;;;;;9.18;6.75;;;22.80;99.90;;;;;;5032296;28;20203;-77
2022/06/12 04:34:19;;;;;;;9.00;7.25;;;22.40;99.90;;;;;;5032656;28;20187;-77
2022/06/12 04:36:47;;;;;;;7.35;6.55;;;21.90;99.90;;;;;;5032296;28;20203;-76
2022/06/12 04:39:15;;;;;;;7.47;6.40;;;21.30;99.90;;;;;;5030566;28;20689;-77
2022/06/12 04:41:41;;;;;;;10.98;8.00;;;20.90;99.90;;;;;;5035503;28;20235;-77
2022/06/12 04:44:08;;;;;;;10.05;7.95;;;20.30;99.90;;;;;;5032931;28;20271;-77
2022/06/12 04:46:36;;;;;;;9.25;7.22;;;20.20;99.90;;;;;;5032516;23;20251;-69
2022/06/12 04:49:03;;;;;;;9.40;8.38;;;20.00;99.90;;;;;;4992682;28;20181;-70
2022/06/12 04:51:30;;;;;;;11.50;8.27;;;20.00;99.90;;;;;;5010308;28;20267;-70
2022/06/12 04:53:56;;;;;;;9.68;8.30;;;20.00;99.90;;;;;;4992773;28;20232;-70
2022/06/12 04:56:24;;;;;;;11.50;8.63;;;20.00;99.90;;;;;;4992476;28;20287;-68
2022/06/12 04:58:51;;;;;;;10.63;8.30;;;20.00;99.90;;;;;;5009973;28;20208;-70
2022/06/12 05:01:18;;;;;;;9.48;8.30;;;20.00;99.90;;;;;;4990249;28;20205;-70
2022/06/12 05:03:43;;;;;;;9.38;8.40;;;20.10;99.90;;;;;;5010205;28;20201;-70
2022/06/12 05:06:13;;;;;;;10.80;9.00;;;20.20;99.90;;;;;;4992744;28;20224;-70
2022/06/12 05:08:39;;;;;;;12.13;8.30;;;20.10;99.90;;;;;;5013079;28;20558;-69
2022/06/12 05:11:05;;;;;;;11.45;8.63;;;20.30;99.90;;;;;;4996493;28;20224;-70
2022/06/12 05:13:31;;;;;;;9.45;8.40;;;20.50;99.90;;;;;;4995761;28;20191;-70
2022/06/12 05:15:58;;;;;;;14.40;9.25;;;21.00;99.90;;;;;;5012881;28;20201;-69
2022/06/12 05:18:24;;;;;;;12.10;9.35;;;21.50;99.90;;;;;;4996234;28;20232;-71
2022/06/12 05:20:50;;;;;;;10.98;9.52;;;21.60;99.90;;;;;;5014000;28;20753;-70
2022/06/12 05:23:16;;;;;;;12.77;9.13;;;21.60;99.90;;;;;;5013911;28;20234;-70
2022/06/12 05:25:43;;;;;;;10.05;9.05;;;21.60;99.90;;;;;;4996001;28;20177;-70
2022/06/12 05:28:11;;;;;;;11.15;9.05;;;21.50;99.90;;;;;;4996556;28;20239;-69
2022/06/12 05:30:38;;;;;;;13.02;9.40;;;21.10;99.90;;;;;;4995883;28;20239;-69
2022/06/12 05:33:04;;;;;;;10.50;9.32;;;20.80;99.90;;;;;;4996161;28;20601;-70
2022/06/12 05:35:31;;;;;;;11.23;9.13;;;21.00;99.90;;;;;;5013393;28;20209;-69
2022/06/12 05:38:00;;;;;;;9.60;8.70;;;21.10;99.90;;;;;;4995759;28;20200;-71
2022/06/12 05:40:31;;;;;;;9.77;8.77;;;21.30;99.90;;;;;;4995761;28;20184;-70
2022/06/12 05:42:56;;;;;;;12.07;9.68;;;21.40;99.90;;;;;;4996943;28;20653;-70
2022/06/12 05:45:25;;;;;;;9.25;8.07;;;21.60;99.90;;;;;;4995727;28;20213;-70
2022/06/12 05:47:56;;;;;;;9.85;8.38;;;21.60;99.90;;;;;;5012986;28;20250;-70
2022/06/12 05:50:26;;;;;;;11.38;9.30;;;21.50;99.90;;;;;;4995125;28;20205;-70
2022/06/12 05:52:52;;;;;;;10.70;9.30;;;21.50;99.90;;;;;;4995545;28;20215;-70
2022/06/12 05:55:18;;;;;;;12.70;9.07;;;21.60;99.90;;;;;;4996078;28;20177;-70
2022/06/12 05:57:43;;;;;;;10.52;9.45;;;21.70;99.90;;;;;;5012531;28;20213;-72
2022/06/12 06:00:19;;;;;;;13.98;9.75;;;21.60;99.90;;;;;;5012512;28;20627;-70
2022/06/12 06:02:44;;;;;;;13.32;9.73;;;21.80;99.90;;;;;;4994742;28;20208;-70
2022/06/12 06:05:11;;;;;;;15.00;9.88;;;21.90;99.90;;;;;;5012759;28;20263;-70
2022/06/12 06:07:38;;;;;;;13.63;9.80;;;22.00;99.90;;;;;;5012593;28;20586;-71
2022/06/12 06:10:07;;;;;;;15.65;10.02;;;22.10;99.90;;;;;;4995086;28;20174;-71
2022/06/12 06:12:33;;;;;;;10.02;9.10;;;22.00;99.90;;;;;;4994815;28;20305;-70
2022/06/12 06:14:58;;;;;;;11.70;9.68;;;21.90;99.90;;;;;;4994925;28;20237;-70
2022/06/12 06:17:24;;;;;;;11.00;9.77;;;22.10;99.90;;;;;;4994314;28;20748;-70
2022/06/12 06:19:50;;;;;;;12.02;10.68;;;21.70;99.90;;;;;;5011564;28;20549;-71
2022/06/12 06:22:18;;;;;;;11.60;10.40;;;21.40;99.90;;;;;;5013348;28;20240;-70
2022/06/12 06:24:47;;;;;;;13.23;10.68;;;21.30;99.90;;;;;;4994620;28;20201;-70
2022/06/12 06:27:14;;;;;;;16.00;12.25;;;21.20;99.90;;;;;;5012633;28;20294;-71
2022/06/12 06:29:41;;;;;;;13.23;9.68;;;21.70;99.90;;;;;;4994190;28;20292;-70
2022/06/12 06:32:08;;;;;;;11.00;9.88;;;22.30;99.90;;;;;;4994508;28;20209;-70
2022/06/12 06:34:37;;;;;;;13.50;9.27;;;22.40;99.90;;;;;;4994486;28;20260;-71
2022/06/12 06:37:05;;;;;;;9.88;8.88;;;22.30;99.90;;;;;;4995151;28;20193;-71
2022/06/12 06:39:31;;;;;;;11.02;9.63;;;22.90;99.90;;;;;;4994199;28;20254;-70
2022/06/12 06:41:57;;;;;;;9.65;8.65;;;23.60;99.90;;;;;;4994502;28;20217;-70
2022/06/12 06:47:07;;;;;;;9.85;7.75;;;27.00;99.90;;;;;;5011818;28;20268;-68
2022/06/12 06:49:32;;;;;;;8.27;7.57;;;27.60;99.90;;;;;;5011602;28;20184;-69
2022/06/12 06:51:58;;;;;;;8.93;8.00;;;27.10;99.90;;;;;;4994780;28;20177;-69
2022/06/12 06:54:24;;;;;;;8.18;7.15;;;26.20;99.90;;;;;;4994020;28;20217;-68
2022/06/12 06:56:50;;;;;;;10.40;7.50;;;25.90;99.90;;;;;;5011548;28;20205;-70
2022/06/12 06:59:16;;;;;;;7.80;6.85;;;26.00;99.90;;;;;;4993791;28;20217;-69
2022/06/12 07:01:42;;;;;;;7.95;7.13;;;25.70;99.90;;;;;;4993733;28;20243;-69
2022/06/12 07:04:08;;;;;;;9.40;7.32;;;25.10;99.90;;;;;;5012212;28;20580;-69
2022/06/12 07:06:34;;;;;;;8.55;7.53;;;25.00;99.90;;;;;;5011509;28;20271;-69
2022/06/12 07:08:59;;;;;;;8.50;7.68;;;24.70;99.90;;;;;;5011299;28;20197;-69
2022/06/12 07:11:26;;;;;;;7.95;6.93;;;24.30;99.90;;;;;;4994511;28;20241;-71
2022/06/12 07:13:53;;;;;;;8.32;7.40;;;23.90;99.90;;;;;;4993870;28;20221;-69
2022/06/12 07:16:20;;;;;;;8.32;7.35;;;23.70;99.90;;;;;;5011792;28;20561;-71
2022/06/12 07:18:46;;;;;;;10.27;7.38;;;23.60;99.90;;;;;;5003176;28;20201;-69
2022/06/12 07:21:12;;;;;;;11.05;8.13;;;23.50;99.90;;;;;;4993961;28;20221;-69
2022/06/12 07:23:38;;;;;;;9.48;8.45;;;23.40;99.90;;;;;;4993706;28;20216;-69
2022/06/12 07:26:08;;;;;;;9.43;7.72;;;23.00;99.90;;;;;;4993597;28;20221;-69
2022/06/12 07:28:37;;;;;;;11.23;8.43;;;22.80;99.90;;;;;;5010901;28;20181;-69
2022/06/12 07:31:04;;;;;;;10.02;9.00;;;22.80;99.90;;;;;;5012070;28;20656;-70
2022/06/12 07:33:30;;;;;;;7.80;7.00;;;22.80;99.90;;;;;;4992702;28;20209;-69
2022/06/12 07:35:55;;;;;;;8.82;6.25;;;22.70;99.90;;;;;;5011133;28;20580;-69
2022/06/12 07:38:24;;;;;;;8.15;7.00;;;22.60;99.90;;;;;;4993392;28;20313;-70
2022/06/12 07:40:54;;;;;;;9.88;6.40;;;22.50;99.90;;;;;;4993531;28;20583;-69
2022/06/12 07:43:22;;;;;;;11.27;6.53;;;23.00;99.90;;;;;;5010474;28;20238;-71
2022/06/12 07:45:48;;;;;;;9.25;6.60;;;23.70;99.90;;;;;;4993254;28;20213;-69
2022/06/12 07:48:14;;;;;;;7.32;6.10;;;23.90;99.90;;;;;;5006803;28;20669;-69
2022/06/12 07:50:42;;;;;;;6.50;5.88;;;24.10;99.90;;;;;;5010840;28;20220;-69
2022/06/12 07:53:09;;;;;;;7.35;6.03;;;23.90;99.90;;;;;;4993422;28;20236;-69
2022/06/12 07:55:34;;;;;;;6.57;5.53;;;23.60;99.90;;;;;;5009275;28;20184;-69
2022/06/12 07:58:01;;;;;;;5.72;3.05;;;23.40;99.90;;;;;;4993585;28;20181;-69
2022/06/12 08:00:26;;;;;;;6.90;3.75;;;23.40;99.90;;;;;;4993116;28;20232;-69
2022/06/12 08:02:52;;;;;;;5.65;3.70;;;23.50;99.90;;;;;;5010599;28;20240;-69
2022/06/12 08:05:19;;;;;;;5.00;3.53;;;23.70;99.90;;;;;;5005995;28;20217;-69
2022/06/12 08:07:45;;;;;;;4.68;3.60;;;23.80;99.90;;;;;;4992785;28;20215;-69
2022/06/12 08:10:12;;;;;;;5.80;4.65;;;24.00;99.90;;;;;;4996923;28;20169;-69
2022/06/12 08:12:40;;;;;;;5.63;4.63;;;24.10;99.90;;;;;;4992806;28;20287;-69
2022/06/12 08:15:09;;;;;;;7.00;5.25;;;24.30;99.90;;;;;;5010805;28;20209;-68
2022/06/12 08:17:35;;;;;;;7.22;4.78;;;24.20;99.90;;;;;;5005444;28;20213;-68
2022/06/12 08:22:44;;;;;;;7.75;4.63;;;24.30;99.90;;;;;;5010829;28;20251;-69
2022/06/12 08:25:10;;;;;;;7.93;5.05;;;24.10;99.90;;;;;;5011789;28;20176;-70
2022/06/12 08:27:36;;;;;;;7.97;4.55;;;24.30;99.90;;;;;;5010465;28;20209;-69
2022/06/12 08:30:04;;;;;;;6.45;4.80;;;24.70;99.90;;;;;;5002743;28;20212;-69
2022/06/12 08:32:30;;;;;;;4.55;3.92;;;26.50;99.90;;;;;;5010270;28;20271;-69
2022/06/12 08:35:00;;;;;;;5.13;3.80;;;27.40;99.90;;;;;;5010473;28;20244;-69
2022/06/12 08:37:32;;;;;;;6.43;3.47;;;27.90;99.90;;;;;;4992668;28;20193;-70
2022/06/12 08:39:58;;;;;;;5.20;3.33;;;27.60;99.90;;;;;;5010488;28;20181;-70
2022/06/12 08:42:41;;;;;;;5.65;3.70;;;27.60;99.90;;;;;;4984135;28;20358;-70
2022/06/12 08:45:19;;;;;;;5.35;3.70;;;27.80;99.90;;;;;;5007174;28;20205;-71
2022/06/12 08:48:00;;;;;;;7.40;4.97;;;28.50;99.90;;;;;;5008407;28;20209;-70
2022/06/12 08:50:37;;;;;;;10.85;5.70;;;28.00;99.90;;;;;;4985951;28;20205;-71
2022/06/12 08:53:22;;;;;;;6.65;4.28;;;27.70;99.90;;;;;;5010409;28;20273;-71
2022/06/12 08:55:53;;;;;;;8.57;5.97;;;27.40;99.90;;;;;;5005664;28;20363;-70
2022/06/12 08:58:41;;;;;;;8.10;5.20;;;27.60;99.90;;;;;;4993700;28;20209;-71
2022/06/12 09:01:08;;;;;;;5.93;3.20;;;28.50;99.90;;;;;;5007997;28;20221;-70
2022/06/12 09:03:39;;;;;;;4.03;2.55;;;29.00;99.90;;;;;;5009942;28;20255;-70
2022/06/12 09:06:49;;;;;;;5.30;3.53;;;29.80;99.90;;;;;;4987205;28;20221;-70
2022/06/12 09:09:30;;;;;;;3.75;2.50;;;29.70;99.90;;;;;;4982484;28;20201;-71
2022/06/12 09:12:09;;;;;;;4.40;2.78;;;29.30;99.90;;;;;;4983557;28;20296;-70
2022/06/12 09:14:56;;;;;;;6.13;3.80;;;28.60;99.90;;;;;;4985046;28;20201;-70
2022/06/12 09:17:49;;;;;;;6.25;4.22;;;28.00;99.90;;;;;;5008881;28;20223;-70
2022/06/12 09:20:31;;;;;;;5.05;3.55;;;27.60;99.90;;;;;;4990349;28;20650;-71
2022/06/12 09:23:10;;;;;;;6.30;3.08;;;27.40;99.90;;;;;;4986017;28;20224;-71
2022/06/12 09:26:07;;;;;;;5.13;2.42;;;27.10;99.90;;;;;;4993734;28;20235;-71
2022/06/12 09:28:35;;;;;;;5.43;2.63;;;26.60;99.90;;;;;;4945719;28;20206;-70
2022/06/12 09:31:24;;;;;;;5.60;2.88;;;26.60;99.90;;;;;;5006196;28;20169;-71
2022/06/12 09:34:32;;;;;;;4.90;2.53;;;26.80;99.90;;;;;;4991738;28;20206;-70
2022/06/12 09:38:18;;;;;;;4.85;2.95;;;27.30;99.90;;;;;;5005915;28;20208;-71
2022/06/12 09:40:20;;;;;;;6.70;3.83;;;27.50;99.90;;;;;;5003040;28;20290;-70
2022/06/12 09:43:24;;;;;;;6.43;3.65;;;27.50;99.90;;;;;;4982562;28;20213;-71
2022/06/12 09:46:06;;;;;;;4.13;2.20;;;27.30;99.90;;;;;;4982350;28;20225;-71
2022/06/12 09:48:59;;;;;;;4.88;2.75;;;27.60;99.90;;;;;;4999562;28;20300;-69
2022/06/12 09:51:37;;;;;;;7.10;3.13;;;27.60;99.90;;;;;;5004706;28;20204;-69
2022/06/12 09:54:12;;;;;;;7.82;3.75;;;27.60;99.90;;;;;;4986272;28;20673;-68
2022/06/12 09:56:43;;;;;;;6.95;2.92;;;27.60;99.90;;;;;;4992366;28;20212;-68
2022/06/12 09:59:19;;;;;;;5.32;2.95;;;27.50;99.90;;;;;;4989587;28;20197;-69
2022/06/12 10:01:48;;;;;;;5.93;2.85;;;26.70;99.90;;;;;;4993162;28;20216;-68
2022/06/12 10:04:24;;;;;;;4.93;3.05;;;26.60;99.90;;;;;;5003347;28;20245;-68
2022/06/12 10:06:55;;;;;;;7.55;4.13;;;26.30;99.90;;;;;;4987196;28;20212;-71
2022/06/12 10:09:32;;;;;;;7.25;3.47;;;26.40;99.90;;;;;;4985735;28;20442;-70
2022/06/12 10:12:14;;;;;;;8.00;5.28;;;26.40;99.90;;;;;;4986604;28;20267;-69
2022/06/12 10:14:51;;;;;;;9.35;6.55;;;27.30;99.90;;;;;;4989966;28;20704;-68
2022/06/12 10:17:22;;;;;;;6.78;2.67;;;27.90;99.90;;;;;;4994267;28;20295;-68
2022/06/12 10:20:20;;;;;;;5.88;2.97;;;28.40;99.90;;;;;;4990311;28;20200;-70
2022/06/12 10:22:50;;;;;;;5.53;2.55;;;28.40;99.90;;;;;;4959673;28;20525;-69
2022/06/12 10:25:42;;;;;;;4.55;2.60;;;28.30;99.90;;;;;;4991643;28;20165;-69
2022/06/12 10:28:29;;;;;;;6.95;2.63;;;28.40;99.90;;;;;;4975313;28;20623;-70
2022/06/12 10:31:10;;;;;;;4.68;2.85;;;27.70;99.90;;;;;;5004608;28;20242;-70
2022/06/12 10:33:41;;;;;;;5.80;2.10;;;27.50;99.90;;;;;;4985586;28;20615;-71
2022/06/12 10:36:17;;;;;;;7.13;3.20;;;27.40;99.90;;;;;;4990512;28;20235;-71
2022/06/12 10:38:43;;;;;;;6.20;2.30;;;27.40;99.90;;;;;;4987278;28;20224;-71
2022/06/12 10:41:24;;;;;;;7.82;2.47;;;27.50;99.90;;;;;;4991865;28;20760;-71
2022/06/12 10:43:52;;;;;;;6.28;2.50;;;27.40;99.90;;;;;;4981264;28;20209;-70
2022/06/12 10:49:15;;;;;;;7.35;2.72;;;28.00;99.90;;;;;;5049011;28;20259;-72
2022/06/12 10:51:41;;;;;;;5.70;2.28;;;28.10;99.90;;;;;;5050808;28;20257;-72
2022/06/12 10:54:15;;;;;;;9.10;3.72;;;28.10;99.90;;;;;;5033659;28;20212;-71
2022/06/12 10:56:43;;;;;;;12.93;3.25;;;28.00;99.90;;;;;;5034688;28;20299;-70
2022/06/12 10:59:23;;;;;;;5.88;3.03;;;28.10;99.90;;;;;;5070648;28;20713;-72
2022/06/12 11:02:06;;;;;;;8.25;4.53;;;28.30;99.90;;;;;;5071265;28;20717;-69
2022/06/12 11:05:01;;;;;;;6.30;2.58;;;28.30;99.90;;;;;;5067735;28;20650;-73
2022/06/12 11:07:54;;;;;;;6.10;2.67;;;28.40;99.90;;;;;;5053143;28;20284;-70
2022/06/12 11:10:29;;;;;;;8.70;2.75;;;28.50;99.90;;;;;;5010532;28;20187;-70
2022/06/12 11:13:04;;;;;;;7.90;2.58;;;28.80;99.90;;;;;;5064848;28;20659;-71
2022/06/12 11:16:03;;;;;;;6.50;2.30;;;28.50;99.90;;;;;;5070693;28;20198;-70
2022/06/12 11:18:37;;;;;;;5.15;2.47;;;28.80;99.90;;;;;;5067888;28;20206;-70
2022/06/12 11:21:22;;;;;;;6.70;2.30;;;28.70;99.90;;;;;;5052705;28;20748;-73
2022/06/12 11:24:08;;;;;;;5.60;2.47;;;28.80;99.90;;;;;;5045587;28;20210;-75
2022/06/12 11:26:52;;;;;;;4.45;1.95;;;28.50;99.90;;;;;;5068968;28;20225;-72
2022/06/12 11:29:39;;;;;;;4.03;1.95;;;28.20;99.90;;;;;;5048465;28;20195;-72
2022/06/12 11:32:24;;;;;;;5.43;2.30;;;27.70;99.90;;;;;;5059219;28;20210;-71
2022/06/12 11:35:26;;;;;;;10.48;4.80;;;27.70;99.90;;;;;;5052260;28;20206;-72
2022/06/12 11:38:18;;;;;;;5.30;2.45;;;27.80;99.90;;;;;;5045272;28;20214;-72
2022/06/12 11:40:55;;;;;;;7.10;2.50;;;27.40;99.90;;;;;;5069530;28;20207;-71
2022/06/12 11:44:05;;;;;;;6.05;2.63;;;27.00;99.90;;;;;;5053065;28;20162;-72
2022/06/12 11:46:43;;;;;;;7.97;2.85;;;27.10;99.90;;;;;;5037459;28;20221;-72
2022/06/12 11:49:25;;;;;;;6.88;2.65;;;26.80;99.90;;;;;;5064239;28;20258;-72
2022/06/12 11:52:05;;;;;;;8.18;2.58;;;26.70;99.90;;;;;;5048249;28;20229;-72
2022/06/12 11:54:45;;;;;;;7.88;2.72;;;27.10;99.90;;;;;;5070304;28;20682;-72
2022/06/12 11:57:46;;;;;;;8.20;4.63;;;27.60;99.90;;;;;;5070216;28;20203;-72
2022/06/12 12:00:18;;;;;;;7.05;2.88;;;28.00;99.90;;;;;;5065758;28;20199;-72
2022/06/12 12:03:31;;;;;;;6.85;2.88;;;27.80;99.90;;;;;;5068152;28;20801;-72
2022/06/12 12:06:25;;;;;;;6.50;3.63;;;27.20;99.90;;;;;;5051996;28;20199;-72
2022/06/12 12:09:06;;;;;;;7.75;4.10;;;27.30;99.90;;;;;;5064803;28;20241;-73
2022/06/12 12:11:41;;;;;;;6.43;3.15;;;27.50;99.90;;;;;;5069824;28;20237;-72
2022/06/12 12:14:12;;;;;;;6.57;3.15;;;27.40;99.90;;;;;;5052418;28;20221;-72
2022/06/12 12:16:48;;;;;;;6.72;3.00;;;26.90;99.90;;;;;;5070396;28;20191;-72
2022/06/12 12:19:20;;;;;;;6.57;3.50;;;26.80;99.90;;;;;;5074492;28;20159;-73
2022/06/12 12:21:51;;;;;;;5.25;2.63;;;26.90;99.90;;;;;;5074083;28;20251;-72
2022/06/12 12:24:25;;;;;;;7.28;3.30;;;26.90;99.90;;;;;;5055978;28;20257;-72
2022/06/12 12:26:54;;;;;;;5.30;2.70;;;27.20;99.90;;;;;;5067114;28;20221;-72
2022/06/12 12:29:28;;;;;;;8.40;3.42;;;27.30;99.90;;;;;;5073939;28;20198;-73
2022/06/12 12:31:54;;;;;;;9.18;3.30;;;27.40;99.90;;;;;;5056427;28;20302;-73
2022/06/12 12:34:23;;;;;;;7.10;3.20;;;27.50;99.90;;;;;;5074539;28;20182;-73
2022/06/12 12:42:35;;;;;;;6.10;3.00;;;27.40;99.90;;;;;;5070497;28;20578;-73
2022/06/12 12:45:32;;;;;;;5.35;3.67;;;27.10;99.90;;;;;;5055798;28;20206;-72
2022/06/12 12:48:07;;;;;;;14.40;7.55;;;26.80;99.90;;;;;;5055297;28;20234;-73
2022/06/12 12:50:51;;;;;;;7.95;4.07;;;26.90;99.90;;;;;;5055293;28;20198;-74
2022/06/12 12:53:26;;;;;;;9.38;4.72;;;27.00;99.90;;;;;;5066485;28;20216;-74
2022/06/12 12:56:11;;;;;;;10.63;3.38;;;27.10;99.90;;;;;;5062793;28;20228;-73
2022/06/12 12:58:54;;;;;;;6.65;3.05;;;27.00;99.90;;;;;;5072980;28;20198;-73
2022/06/12 13:01:23;;;;;;;5.68;2.58;;;26.90;99.90;;;;;;5056178;28;20194;-73
2022/06/12 13:03:57;;;;;;;8.32;4.07;;;27.00;99.90;;;;;;5073307;28;20556;-72
2022/06/12 13:07:01;;;;;;;8.90;4.03;;;27.20;99.90;;;;;;5072889;28;20199;-73
2022/06/12 13:09:41;;;;;;;6.55;2.35;;;27.20;99.90;;;;;;5052403;28;20194;-73
2022/06/12 13:12:29;;;;;;;5.70;2.30;;;27.10;99.90;;;;;;5054897;28;20198;-74
2022/06/12 13:15:31;;;;;;;5.30;2.97;;;27.10;99.90;;;;;;5065997;28;20214;-72
2022/06/12 13:18:03;;;;;;;6.25;2.20;;;27.00;99.90;;;;;;5022425;28;20264;-74
2022/06/12 13:20:37;;;;;;;5.70;2.72;;;27.00;99.90;;;;;;5055758;28;20217;-75
2022/06/12 13:23:34;;;;;;;6.63;2.67;;;27.10;99.90;;;;;;5062348;28;20218;-74
2022/06/12 13:26:05;;;;;;;6.63;2.40;;;27.10;99.90;;;;;;5069228;28;20218;-74
2022/06/12 13:28:33;;;;;;;5.63;2.55;;;27.10;99.90;;;;;;5065054;28;20664;-74
2022/06/12 13:31:00;;;;;;;7.70;2.65;;;27.20;99.90;;;;;;5056339;28;20179;-74
2022/06/12 13:33:32;;;;;;;4.78;1.90;;;27.20;99.90;;;;;;5073787;28;20603;-74
2022/06/12 13:36:06;;;;;;;4.90;2.33;;;27.30;99.90;;;;;;5066447;28;20638;-74
2022/06/12 13:38:53;;;;;;;4.57;3.08;;;27.20;99.90;;;;;;5051119;28;20230;-75
2022/06/12 13:41:40;;;;;;;5.72;3.63;;;27.20;99.90;;;;;;5076464;28;20756;-74